createdAt,value
2018-07-20T00:01:23.061Z,61.50
2018-07-20T00:03:52.615Z,61.70
2018-07-20T00:06:22.107Z,62.00
2018-07-20T00:08:51.559Z,62.10
2018-07-20T00:11:21.123Z,62.20
2018-07-20T00:13:50.937Z,62.50
2018-07-20T00:16:20.451Z,62.60
2018-07-20T00:18:49.955Z,62.60
2018-07-20T00:21:19.570Z,62.90
2018-07-20T00:23:49.160Z,62.90
2018-07-20T00:26:18.687Z,63.00
2018-07-20T00:28:48.202Z,63.10
2018-07-20T00:31:17.710Z,63.10
2018-07-20T00:33:47.261Z,63.70
2018-07-20T00:36:16.829Z,63.70
2018-07-20T00:38:46.235Z,64.20
2018-07-20T00:41:15.675Z,64.40
2018-07-20T00:43:45.148Z,65.00
2018-07-20T00:46:14.574Z,65.40
2018-07-20T00:48:44.015Z,64.90
2018-07-20T00:51:13.561Z,64.90
2018-07-20T00:53:43.057Z,64.90
2018-07-20T00:56:12.450Z,64.90
2018-07-20T00:58:42.000Z,64.90
2018-07-20T01:01:11.513Z,64.90
2018-07-20T01:03:40.969Z,66.00
2018-07-20T01:06:10.629Z,66.50
2018-07-20T01:08:40.191Z,66.90
2018-07-20T01:11:09.675Z,67.00
2018-07-20T01:13:39.126Z,67.00
2018-07-20T01:16:08.668Z,67.50
2018-07-20T01:18:38.152Z,67.70
2018-07-20T01:21:07.951Z,68.00
2018-07-20T01:23:37.506Z,68.20
2018-07-20T01:26:06.948Z,68.60
2018-07-20T01:28:36.422Z,68.70
2018-07-20T01:31:05.862Z,68.50
2018-07-20T01:33:35.277Z,68.60
2018-07-20T01:36:04.743Z,68.80
2018-07-20T01:38:34.204Z,68.90
2018-07-20T01:41:03.664Z,68.80
2018-07-20T01:43:33.125Z,68.90
2018-07-20T01:46:02.611Z,69.00
2018-07-20T01:48:32.080Z,68.80
2018-07-20T01:51:01.591Z,68.60
2018-07-20T01:53:31.049Z,68.70
2018-07-20T01:56:00.561Z,69.00
2018-07-20T01:58:30.070Z,68.90
2018-07-20T02:00:59.523Z,68.90
2018-07-20T02:05:58.195Z,69.20
2018-07-20T02:08:27.746Z,68.90
2018-07-20T02:10:59.324Z,69.00
2018-07-20T02:13:28.884Z,69.40
2018-07-20T02:15:59.140Z,69.50
2018-07-20T02:20:57.565Z,69.50
2018-07-20T02:23:26.993Z,70.10
2018-07-20T02:25:56.407Z,70.20
2018-07-20T02:28:25.776Z,70.10
2018-07-20T02:30:55.349Z,70.10
2018-07-20T02:33:24.888Z,70.10
2018-07-20T02:35:54.316Z,70.30
2018-07-20T02:38:23.750Z,70.40
2018-07-20T02:40:53.276Z,70.30
2018-07-20T02:43:22.704Z,70.20
2018-07-20T02:45:52.226Z,70.50
2018-07-20T02:48:21.734Z,70.70
2018-07-20T02:50:51.247Z,71.10
2018-07-20T02:53:20.680Z,70.80
2018-07-20T02:55:50.218Z,70.50
2018-07-20T02:58:19.700Z,70.50
2018-07-20T03:00:49.281Z,70.50
2018-07-20T03:03:18.766Z,70.90
2018-07-20T03:05:48.470Z,71.00
2018-07-20T03:08:17.986Z,70.90
2018-07-20T03:10:48.147Z,71.10
2018-07-20T03:13:17.737Z,71.20
2018-07-20T03:15:47.975Z,71.20
2018-07-20T03:18:17.586Z,71.40
2018-07-20T03:20:47.196Z,71.50
2018-07-20T03:23:17.423Z,71.70
2018-07-20T03:25:46.920Z,71.80
2018-07-20T03:28:17.157Z,71.90
2018-07-20T03:30:46.717Z,71.90
2018-07-20T03:33:16.185Z,72.00
2018-07-20T03:35:45.758Z,71.90
2018-07-20T03:38:15.283Z,72.20
2018-07-20T03:40:44.725Z,72.30
2018-07-20T03:43:14.176Z,72.30
2018-07-20T03:45:43.670Z,72.40
2018-07-20T03:48:13.230Z,72.60
2018-07-20T03:50:42.674Z,73.00
2018-07-20T03:55:41.220Z,73.50
2018-07-20T03:58:10.740Z,73.60
2018-07-20T04:00:40.214Z,73.50
2018-07-20T04:05:38.763Z,73.30
2018-07-20T04:08:08.253Z,73.30
2018-07-20T04:10:37.788Z,73.20
2018-07-20T04:13:07.332Z,73.20
2018-07-20T04:15:36.735Z,73.50
2018-07-20T04:18:06.273Z,73.40
2018-07-20T04:20:35.739Z,73.20
2018-07-20T04:23:05.235Z,73.10
2018-07-20T04:25:34.830Z,72.90
2018-07-20T04:28:04.309Z,72.70
2018-07-20T04:30:33.765Z,72.70
2018-07-20T04:33:03.216Z,72.40
2018-07-20T04:35:32.758Z,72.20
2018-07-20T04:38:02.240Z,71.90
2018-07-20T04:43:00.800Z,71.50
2018-07-20T04:45:30.263Z,71.40
2018-07-20T04:47:59.684Z,71.40
2018-07-20T04:50:29.117Z,71.60
2018-07-20T04:52:58.733Z,71.20
2018-07-20T04:55:28.239Z,71.30
2018-07-20T04:57:57.782Z,71.20
2018-07-20T05:00:27.224Z,71.10
2018-07-20T05:02:56.611Z,70.90
2018-07-20T05:05:26.118Z,70.90
2018-07-20T05:07:55.633Z,70.60
2018-07-20T05:10:25.080Z,70.60
2018-07-20T05:12:54.519Z,70.50
2018-07-20T05:15:24.015Z,70.30
2018-07-20T05:17:53.515Z,70.00
2018-07-20T05:20:24.015Z,69.80
2018-07-20T05:22:53.537Z,69.60
2018-07-20T05:25:23.171Z,69.50
2018-07-20T05:27:52.938Z,69.40
2018-07-20T05:30:22.397Z,69.50
2018-07-20T05:32:51.995Z,69.30
2018-07-20T05:35:21.575Z,69.00
2018-07-20T05:37:51.096Z,68.90
2018-07-20T05:40:20.581Z,68.50
2018-07-20T05:42:50.108Z,68.20
2018-07-20T05:45:19.640Z,68.00
2018-07-20T05:47:49.255Z,67.70
2018-07-20T05:50:18.818Z,67.40
2018-07-20T05:52:48.349Z,66.50
2018-07-20T05:55:17.865Z,66.40
2018-07-20T05:57:47.478Z,66.50
2018-07-20T06:00:17.055Z,66.10
2018-07-20T06:02:46.739Z,65.60
2018-07-20T06:05:17.351Z,65.10
2018-07-20T06:07:46.863Z,64.90
2018-07-20T06:10:16.389Z,64.60
2018-07-20T06:12:46.009Z,64.60
2018-07-20T06:15:15.589Z,64.40
2018-07-20T06:17:45.298Z,64.40
2018-07-20T06:20:14.934Z,64.00
2018-07-20T06:22:44.636Z,63.80
2018-07-20T06:25:14.227Z,63.70
2018-07-20T06:27:43.873Z,63.60
2018-07-20T06:30:13.497Z,63.50
2018-07-20T06:32:43.152Z,63.40
2018-07-20T06:35:12.801Z,63.40
2018-07-20T06:37:42.403Z,63.40
2018-07-20T06:40:11.948Z,63.30
2018-07-20T06:42:41.561Z,63.10
2018-07-20T06:45:11.212Z,63.10
2018-07-20T06:47:40.781Z,63.00
2018-07-20T06:50:17.318Z,63.00
2018-07-20T06:52:48.038Z,62.40
2018-07-20T06:55:17.770Z,62.10
2018-07-20T06:57:47.516Z,62.00
2018-07-20T07:00:17.223Z,62.00
2018-07-20T07:02:46.818Z,61.40
2018-07-20T07:05:16.420Z,61.60
2018-07-20T07:07:46.153Z,60.70
2018-07-20T07:10:15.698Z,60.30
2018-07-20T07:12:51.789Z,60.30
2018-07-20T07:15:21.362Z,60.50
2018-07-20T07:17:50.880Z,60.40
2018-07-20T07:20:20.569Z,60.30
2018-07-20T07:22:50.294Z,60.30
2018-07-20T07:25:19.892Z,60.00
2018-07-20T07:27:49.513Z,60.00
2018-07-20T07:30:19.287Z,59.80
2018-07-20T07:32:48.856Z,59.70
2018-07-20T07:35:18.495Z,59.60
2018-07-20T07:37:48.763Z,59.30
2018-07-20T07:40:18.397Z,59.10
2018-07-20T07:42:47.976Z,58.70
2018-07-20T07:45:19.479Z,58.60
2018-07-20T07:47:49.007Z,58.70
2018-07-20T07:50:18.639Z,58.70
2018-07-20T07:52:48.386Z,58.30
2018-07-20T07:55:17.987Z,58.70
2018-07-20T08:00:16.656Z,58.90
2018-07-20T08:02:46.285Z,59.10
2018-07-20T08:05:15.827Z,58.30
2018-07-20T08:07:45.364Z,57.90
2018-07-20T08:10:14.986Z,57.50
2018-07-20T08:12:44.699Z,56.80
2018-07-20T08:15:14.271Z,56.50
2018-07-20T08:17:43.868Z,55.50
2018-07-20T08:20:13.482Z,55.60
2018-07-20T08:22:43.254Z,55.40
2018-07-20T08:25:12.811Z,55.40
2018-07-20T08:27:42.384Z,55.30
2018-07-20T08:30:11.922Z,54.90
2018-07-20T08:32:41.601Z,54.90
2018-07-20T08:35:13.112Z,54.80
2018-07-20T08:37:42.643Z,54.40
2018-07-20T08:40:12.282Z,54.50
2018-07-20T08:42:41.863Z,54.60
2018-07-20T08:45:11.468Z,54.40
2018-07-20T08:47:41.044Z,54.00
2018-07-20T08:50:10.660Z,53.50
2018-07-20T08:52:40.253Z,53.30
2018-07-20T08:55:09.823Z,53.20
2018-07-20T08:57:39.322Z,52.90
2018-07-20T09:00:09.271Z,52.60
2018-07-20T09:02:38.826Z,52.20
2018-07-20T09:05:08.464Z,51.50
2018-07-20T09:07:38.121Z,51.00
2018-07-20T09:10:07.648Z,50.80
2018-07-20T09:12:37.198Z,50.30
2018-07-20T09:15:06.860Z,50.30
2018-07-20T09:17:36.366Z,49.90
2018-07-20T09:20:06.030Z,48.60
2018-07-20T09:22:36.202Z,49.10
2018-07-20T09:25:07.345Z,48.50
2018-07-20T09:27:36.883Z,48.50
2018-07-20T09:30:06.539Z,48.40
2018-07-20T09:32:36.137Z,47.60
2018-07-20T09:35:05.855Z,47.40
2018-07-20T09:37:35.455Z,47.40
2018-07-20T09:40:05.234Z,46.70
2018-07-20T09:42:34.856Z,45.60
2018-07-20T09:45:04.947Z,45.50
2018-07-20T09:47:34.562Z,44.20
2018-07-20T09:52:33.305Z,44.80
2018-07-20T09:55:02.905Z,43.90
2018-07-20T09:57:32.514Z,43.80
2018-07-20T10:00:08.310Z,43.50
2018-07-20T10:02:37.847Z,43.20
2018-07-20T10:05:07.585Z,43.30
2018-07-20T10:07:37.765Z,42.20
2018-07-20T10:10:07.637Z,42.20
2018-07-20T10:12:37.195Z,42.20
2018-07-20T10:15:07.009Z,42.30
2018-07-20T10:17:36.774Z,42.40
2018-07-20T10:20:06.958Z,42.10
2018-07-20T10:22:36.625Z,41.40
2018-07-20T10:25:06.343Z,41.90
2018-07-20T10:27:35.983Z,41.10
2018-07-20T10:30:05.782Z,41.30
2018-07-20T10:32:35.622Z,41.10
2018-07-20T10:35:05.345Z,40.70
2018-07-20T10:37:35.100Z,41.00
2018-07-20T10:40:04.802Z,40.90
2018-07-20T10:42:34.567Z,40.40
2018-07-20T10:45:05.998Z,40.00
2018-07-20T10:47:35.590Z,39.70
2018-07-20T10:50:05.986Z,39.30
2018-07-20T10:52:35.617Z,38.60
2018-07-20T10:55:05.213Z,38.30
2018-07-20T10:57:34.996Z,38.80
2018-07-20T11:00:05.002Z,39.40
2018-07-20T11:02:35.354Z,38.30
2018-07-20T11:05:05.017Z,37.70
2018-07-20T11:07:34.538Z,37.00
2018-07-20T11:10:04.368Z,37.10
2018-07-20T11:12:34.043Z,37.50
2018-07-20T11:15:03.838Z,37.20
2018-07-20T11:17:33.441Z,36.50
2018-07-20T11:20:03.155Z,36.90
2018-07-20T11:22:32.784Z,36.70
2018-07-20T11:25:02.381Z,36.20
2018-07-20T11:27:32.047Z,35.80
2018-07-20T11:30:02.569Z,35.70
2018-07-20T11:32:32.219Z,35.90
2018-07-20T11:35:01.785Z,35.70
2018-07-20T11:37:31.274Z,35.90
2018-07-20T11:40:00.902Z,36.20
2018-07-20T11:42:30.589Z,35.90
2018-07-20T11:45:02.535Z,36.20
2018-07-20T11:47:47.160Z,36.10
2018-07-20T11:50:26.001Z,35.50
2018-07-20T11:53:05.041Z,35.10
2018-07-20T11:55:34.771Z,35.20
2018-07-20T11:58:04.431Z,35.10
2018-07-20T12:00:33.930Z,34.80
2018-07-20T12:03:03.485Z,34.40
2018-07-20T12:05:33.095Z,33.20
2018-07-20T12:08:02.672Z,33.50
2018-07-20T12:10:32.189Z,33.40
2018-07-20T12:13:01.900Z,33.50
2018-07-20T12:15:31.497Z,32.40
2018-07-20T12:18:00.977Z,31.90
2018-07-20T12:20:30.770Z,32.20
2018-07-20T12:23:00.378Z,32.50
2018-07-20T12:25:29.883Z,32.50
2018-07-20T12:27:59.438Z,32.90
2018-07-20T12:32:58.068Z,32.00
2018-07-20T12:35:27.595Z,32.20
2018-07-20T12:37:57.188Z,32.00
2018-07-20T12:40:26.999Z,31.50
2018-07-20T12:42:56.562Z,31.60
2018-07-20T12:45:26.121Z,31.30
2018-07-20T12:47:55.631Z,31.00
2018-07-20T12:50:25.162Z,30.50
2018-07-20T12:52:54.936Z,30.00
2018-07-20T12:55:24.543Z,30.00
2018-07-20T12:57:54.137Z,30.10
2018-07-20T13:00:23.745Z,30.00
2018-07-20T13:02:53.310Z,29.90
2018-07-20T13:05:22.903Z,29.90
2018-07-20T13:07:52.486Z,30.00
2018-07-20T13:10:21.968Z,29.60
2018-07-20T13:12:51.422Z,29.60
2018-07-20T13:15:20.965Z,29.50
2018-07-20T13:17:50.784Z,28.10
2018-07-20T13:20:20.422Z,28.50
2018-07-20T13:22:50.012Z,28.30
2018-07-20T13:25:19.555Z,28.20
2018-07-20T13:27:49.054Z,28.20
2018-07-20T13:30:18.607Z,27.90
2018-07-20T13:32:48.187Z,27.90
2018-07-20T13:35:17.782Z,27.70
2018-07-20T13:37:47.384Z,28.00
2018-07-20T13:40:16.939Z,27.80
2018-07-20T13:42:46.548Z,27.60
2018-07-20T13:45:16.187Z,27.40
2018-07-20T13:47:45.727Z,27.70
2018-07-20T13:50:15.476Z,27.70
2018-07-20T13:52:45.138Z,28.50
2018-07-20T13:55:15.116Z,29.20
2018-07-20T13:57:44.744Z,29.90
2018-07-20T14:00:14.262Z,29.90
2018-07-20T14:02:43.801Z,30.00
2018-07-20T14:05:13.460Z,30.30
2018-07-20T14:10:12.176Z,30.00
2018-07-20T14:12:41.826Z,30.60
2018-07-20T14:15:11.424Z,30.90
2018-07-20T14:17:41.029Z,31.30
2018-07-20T14:20:10.536Z,31.50
2018-07-20T14:22:40.054Z,31.50
2018-07-20T14:25:09.588Z,31.60
2018-07-20T14:27:39.168Z,31.80
2018-07-20T14:30:08.771Z,32.00
2018-07-20T14:32:38.283Z,32.10
2018-07-20T14:35:07.914Z,32.30
2018-07-20T14:37:37.419Z,32.60
2018-07-20T14:40:09.635Z,32.90
2018-07-20T14:42:39.347Z,33.10
2018-07-20T14:45:09.391Z,33.10
2018-07-20T14:47:38.966Z,33.30
2018-07-20T14:50:08.710Z,33.30
2018-07-20T14:52:38.301Z,33.10
2018-07-20T14:55:07.948Z,32.70
2018-07-20T14:57:37.535Z,32.50
2018-07-20T15:00:07.351Z,32.10
2018-07-20T15:02:36.891Z,31.80
2018-07-20T15:05:06.601Z,31.60
2018-07-20T15:07:36.143Z,31.40
2018-07-20T15:10:05.803Z,31.20
2018-07-20T15:12:35.437Z,31.30
2018-07-20T15:15:05.459Z,30.80
2018-07-20T15:17:35.067Z,30.30
2018-07-20T15:20:05.361Z,29.90
2018-07-20T15:22:35.270Z,30.00
2018-07-20T15:25:04.980Z,30.00
2018-07-20T15:27:34.566Z,30.00
2018-07-20T15:30:04.332Z,29.80
2018-07-20T15:32:33.911Z,29.60
2018-07-20T15:35:03.797Z,29.60
2018-07-20T15:37:33.471Z,29.40
2018-07-20T15:40:03.200Z,29.40
2018-07-20T15:42:32.774Z,29.30
2018-07-20T15:45:02.443Z,29.20
2018-07-20T15:47:32.162Z,29.00
2018-07-20T15:50:01.720Z,28.90
2018-07-20T15:55:01.314Z,28.80
2018-07-20T15:57:31.102Z,28.80
2018-07-20T16:00:00.768Z,28.80
2018-07-20T16:02:30.536Z,28.70
2018-07-20T16:05:00.727Z,28.70
2018-07-20T16:07:30.332Z,29.10
2018-07-20T16:10:00.003Z,29.70
2018-07-20T16:12:29.621Z,31.10
2018-07-20T16:14:59.155Z,31.30
2018-07-20T16:17:28.808Z,31.70
2018-07-20T16:19:58.324Z,32.50
2018-07-20T16:22:28.867Z,33.70
2018-07-20T16:24:58.454Z,35.70
2018-07-20T16:27:28.049Z,36.90
2018-07-20T16:29:57.588Z,39.30
2018-07-20T16:32:27.135Z,40.80
2018-07-20T16:34:56.791Z,42.10
2018-07-20T16:37:26.342Z,43.40
2018-07-20T16:39:56.727Z,44.30
2018-07-20T16:42:26.288Z,45.40
2018-07-20T16:44:55.841Z,46.10
2018-07-20T16:47:25.454Z,47.70
2018-07-20T16:49:55.028Z,49.00
2018-07-20T16:52:24.524Z,49.60
2018-07-20T16:54:54.102Z,50.90
2018-07-20T16:57:23.740Z,52.40
2018-07-20T16:59:53.502Z,53.30
2018-07-20T17:02:23.120Z,53.10
2018-07-20T17:04:52.864Z,52.90
2018-07-20T17:09:51.570Z,52.80
2018-07-20T17:12:21.393Z,53.10
2018-07-20T17:14:51.956Z,53.20
2018-07-20T17:17:21.915Z,53.70
2018-07-20T17:19:51.734Z,54.40
2018-07-20T17:22:21.393Z,55.50
2018-07-20T17:24:51.053Z,55.70
2018-07-20T17:29:49.933Z,56.60
2018-07-20T17:32:19.628Z,56.80
2018-07-20T17:34:49.207Z,57.40
2018-07-20T17:37:22.997Z,57.30
2018-07-20T17:39:52.566Z,57.00
2018-07-20T17:42:22.090Z,56.80
2018-07-20T17:44:51.736Z,57.50
2018-07-20T17:47:21.303Z,56.90
2018-07-20T17:49:50.944Z,56.20
2018-07-20T17:52:20.593Z,56.70
2018-07-20T17:54:50.680Z,57.80
2018-07-20T17:57:20.321Z,58.60
2018-07-20T17:59:49.919Z,59.70
2018-07-20T18:02:19.665Z,59.20
2018-07-20T18:04:49.365Z,60.40
2018-07-20T18:07:18.925Z,60.70
2018-07-20T18:09:48.628Z,60.60
2018-07-20T18:12:18.210Z,60.70
2018-07-20T18:14:47.797Z,60.70
2018-07-20T18:17:17.534Z,60.60
2018-07-20T18:19:47.173Z,60.50
2018-07-20T18:22:16.766Z,60.50
2018-07-20T18:24:46.392Z,61.70
2018-07-20T18:27:16.078Z,61.10
2018-07-20T18:29:45.637Z,61.20
2018-07-20T18:32:16.393Z,61.40
2018-07-20T18:34:46.106Z,62.10
2018-07-20T18:37:16.329Z,61.30
2018-07-20T18:39:45.885Z,62.30
2018-07-20T18:42:15.557Z,61.90
2018-07-20T18:44:45.002Z,62.10
2018-07-20T18:47:14.580Z,62.50
2018-07-20T18:49:46.942Z,62.80
2018-07-20T18:52:16.529Z,63.00
2018-07-20T18:54:46.122Z,62.60
2018-07-20T18:57:15.695Z,63.80
2018-07-20T18:59:45.928Z,64.00
2018-07-20T19:04:44.586Z,64.80
2018-07-20T19:07:14.173Z,64.80
2018-07-20T19:09:43.739Z,65.80
2018-07-20T19:12:13.283Z,65.10
2018-07-20T19:14:42.832Z,65.10
2018-07-20T19:17:12.478Z,65.40
2018-07-20T19:19:42.088Z,65.00
2018-07-20T19:22:11.659Z,64.40
2018-07-20T19:27:10.214Z,63.70
2018-07-20T19:29:39.791Z,64.20
2018-07-20T19:32:09.546Z,64.20
2018-07-20T19:34:39.085Z,64.30
2018-07-20T19:37:08.749Z,64.70
2018-07-20T19:39:38.457Z,65.10
2018-07-20T19:42:07.987Z,65.70
2018-07-20T19:44:37.959Z,66.10
2018-07-20T19:47:07.611Z,66.20
2018-07-20T19:49:37.190Z,66.40
2018-07-20T19:52:07.256Z,66.30
2018-07-20T19:54:36.806Z,66.80
2018-07-20T19:57:06.757Z,67.10
2018-07-20T19:59:36.541Z,67.20
2018-07-20T20:02:06.349Z,67.40
2018-07-20T20:04:35.864Z,67.60
2018-07-20T20:07:05.616Z,67.30
2018-07-20T20:09:35.114Z,67.10
2018-07-20T20:12:05.009Z,67.00
2018-07-20T20:14:34.544Z,66.90
2018-07-20T20:17:04.134Z,66.90
2018-07-20T20:19:33.713Z,66.90
2018-07-20T20:22:03.377Z,67.50
2018-07-20T20:24:32.892Z,66.50
2018-07-20T20:27:02.515Z,66.50
2018-07-20T20:29:32.104Z,66.80
2018-07-20T20:32:01.698Z,66.80
2018-07-20T20:34:31.525Z,66.70
2018-07-20T20:37:01.110Z,67.00
2018-07-20T20:39:30.629Z,67.20
2018-07-20T20:42:00.208Z,67.30
2018-07-20T20:44:29.815Z,67.20
2018-07-20T20:46:59.615Z,67.20
2018-07-20T20:49:29.580Z,67.10
2018-07-20T20:51:59.114Z,67.60
2018-07-20T20:56:57.634Z,68.40
2018-07-20T20:59:27.119Z,69.20
2018-07-20T21:01:58.297Z,69.60
2018-07-20T21:04:27.901Z,69.90
2018-07-20T21:06:57.377Z,69.90
2018-07-20T21:11:56.076Z,70.30
2018-07-20T21:14:25.468Z,70.20
2018-07-20T21:16:55.073Z,70.30
2018-07-20T21:19:24.649Z,70.40
2018-07-20T21:21:54.217Z,70.50
2018-07-20T21:24:23.753Z,70.70
2018-07-20T21:26:53.305Z,71.00
2018-07-20T21:29:22.863Z,70.80
2018-07-20T21:31:52.416Z,71.00
2018-07-20T21:36:51.045Z,71.50
2018-07-20T21:39:20.578Z,71.50
2018-07-20T21:41:50.232Z,71.40
2018-07-20T21:44:19.756Z,71.20
2018-07-20T21:46:49.323Z,70.40
2018-07-20T21:51:48.460Z,70.50
2018-07-20T21:54:18.036Z,70.30
2018-07-20T21:56:47.606Z,69.70
2018-07-20T21:59:17.122Z,69.90
2018-07-20T22:01:46.638Z,69.40
2018-07-20T22:04:16.140Z,69.60
2018-07-20T22:06:45.718Z,69.90
2018-07-20T22:09:15.272Z,69.90
2018-07-20T22:11:44.830Z,69.60
2018-07-20T22:14:14.396Z,69.60
2018-07-20T22:16:43.926Z,69.80
2018-07-20T22:19:13.632Z,69.70
2018-07-20T22:24:12.233Z,69.60
2018-07-20T22:26:41.801Z,69.00
2018-07-20T22:29:11.337Z,69.20
2018-07-20T22:31:40.944Z,69.60
2018-07-20T22:34:10.468Z,69.50
2018-07-20T22:36:40.101Z,68.40
2018-07-20T22:39:11.749Z,69.10
2018-07-20T22:41:43.429Z,69.50
2018-07-20T22:44:12.971Z,69.40
2018-07-20T22:46:42.461Z,69.10
2018-07-20T22:49:11.997Z,69.00
2018-07-20T22:51:41.512Z,69.20
2018-07-20T22:54:11.019Z,69.00
2018-07-20T22:59:09.564Z,69.80
2018-07-20T23:01:39.171Z,69.10
2018-07-20T23:04:08.759Z,69.10
2018-07-20T23:06:38.316Z,69.40
2018-07-20T23:09:09.221Z,69.00
2018-07-20T23:11:39.099Z,68.60
2018-07-20T23:14:08.649Z,68.20
2018-07-20T23:16:38.619Z,68.10
2018-07-20T23:19:09.340Z,68.00
2018-07-20T23:21:38.876Z,68.00
2018-07-20T23:24:08.768Z,68.40
2018-07-20T23:29:07.429Z,68.50
2018-07-20T23:31:36.967Z,68.50
2018-07-20T23:34:06.816Z,68.60
2018-07-20T23:36:36.480Z,68.60
2018-07-20T23:39:07.993Z,68.80
2018-07-20T23:41:37.736Z,68.50
2018-07-20T23:44:07.564Z,68.10
2018-07-20T23:46:37.073Z,68.10
2018-07-20T23:49:06.561Z,68.60
2018-07-20T23:51:36.022Z,67.80
2018-07-20T23:54:05.593Z,68.40
2018-07-20T23:56:35.111Z,67.70
2018-07-20T23:59:04.658Z,67.60
